Time;durP1;ratioP1;P1;durP2;ratioP2;P2;SDS_P1;SDS_P2;PMS_P1;PMS_P2;Temp;Humidity;BMP_temperature;BMP_pressure;BME280_temperature;BME280_humidity;BME280_pressure;Samples;Min_cycle;Max_cycle;Signal;HPM_P1;HPM_P2
2021/08/03 00:02:18;;;;;;;18.10;2.67;;;21.20;74.70;;;;;;4988533;28;20033;-59
2021/08/03 00:04:45;;;;;;;14.15;3.15;;;21.20;74.90;;;;;;4952727;28;20034;-59
2021/08/03 00:07:12;;;;;;;15.07;2.85;;;21.10;74.90;;;;;;4985743;28;20049;-59
2021/08/03 00:09:38;;;;;;;13.48;2.83;;;21.10;74.90;;;;;;4987879;28;20022;-59
2021/08/03 00:12:08;;;;;;;11.55;2.80;;;21.10;75.00;;;;;;4970217;28;20052;-59
2021/08/03 00:14:34;;;;;;;11.25;3.20;;;21.10;75.10;;;;;;4986190;28;20030;-59
2021/08/03 00:16:59;;;;;;;15.73;2.92;;;21.00;75.30;;;;;;4986385;28;20081;-59
2021/08/03 00:19:25;;;;;;;12.93;2.45;;;21.00;75.40;;;;;;5001590;28;20082;-59
2021/08/03 00:21:51;;;;;;;13.50;2.63;;;21.00;75.50;;;;;;4986686;28;20474;-59
2021/08/03 00:24:17;;;;;;;14.68;2.97;;;21.00;75.50;;;;;;4987116;28;20034;-59
2021/08/03 00:26:42;;;;;;;8.10;2.33;;;20.90;75.40;;;;;;4987163;28;20517;-59
2021/08/03 00:29:08;;;;;;;18.98;2.63;;;20.90;75.50;;;;;;4985453;28;20458;-59
2021/08/03 00:31:34;;;;;;;15.05;2.45;;;20.90;75.60;;;;;;4981115;28;20031;-59
2021/08/03 00:33:59;;;;;;;7.90;2.00;;;20.90;75.70;;;;;;4987330;28;20026;-59
2021/08/03 00:36:27;;;;;;;11.18;2.60;;;20.80;75.90;;;;;;4985596;28;20022;-59
2021/08/03 00:38:53;;;;;;;9.38;1.92;;;20.80;76.00;;;;;;4981610;28;20054;-59
2021/08/03 00:41:22;;;;;;;17.42;3.50;;;20.80;76.00;;;;;;4986999;28;20438;-59
2021/08/03 00:43:47;;;;;;;11.57;3.00;;;20.70;76.10;;;;;;4985569;28;20038;-59
2021/08/03 00:46:13;;;;;;;11.00;3.30;;;20.70;76.20;;;;;;4986636;28;20427;-59
2021/08/03 00:48:39;;;;;;;10.10;3.10;;;20.70;76.30;;;;;;4986410;28;20045;-59
2021/08/03 00:51:04;;;;;;;7.47;3.10;;;20.70;76.50;;;;;;4986498;28;20030;-59
2021/08/03 00:53:32;;;;;;;7.40;2.90;;;20.60;76.50;;;;;;4987726;28;20042;-59
2021/08/03 00:55:59;;;;;;;8.68;3.35;;;20.60;76.60;;;;;;4985907;28;20077;-59
2021/08/03 00:58:25;;;;;;;7.63;2.60;;;20.60;76.70;;;;;;4986369;28;20213;-59
2021/08/03 01:00:53;;;;;;;6.13;2.85;;;20.60;76.80;;;;;;4988434;28;20153;-59
2021/08/03 01:03:19;;;;;;;7.95;2.60;;;20.60;76.90;;;;;;4986304;28;20030;-59
2021/08/03 01:06:00;;;;;;;4.85;2.47;;;20.50;76.80;;;;;;4969828;28;20041;-59
2021/08/03 01:09:01;;;;;;;5.40;2.25;;;20.50;76.90;;;;;;4971795;28;20091;-59
2021/08/03 01:11:57;;;;;;;10.00;2.65;;;20.50;77.10;;;;;;4963016;28;20073;-59
2021/08/03 01:14:32;;;;;;;6.15;2.33;;;20.50;77.10;;;;;;4988729;28;20041;-59
2021/08/03 01:17:37;;;;;;;7.95;2.28;;;20.50;77.10;;;;;;4984530;28;20034;-59
2021/08/03 01:20:09;;;;;;;7.93;2.35;;;20.50;77.10;;;;;;4980212;28;20046;-59
2021/08/03 01:23:02;;;;;;;5.47;2.58;;;20.40;77.20;;;;;;4986046;28;20030;-59
2021/08/03 01:26:01;;;;;;;8.43;2.13;;;20.40;77.40;;;;;;4987078;28;20133;-59
2021/08/03 01:28:28;;;;;;;9.88;2.20;;;20.30;77.30;;;;;;4985481;28;20088;-59
2021/08/03 01:31:16;;;;;;;4.20;1.95;;;20.30;77.40;;;;;;4984398;28;20176;-59
2021/08/03 01:33:43;;;;;;;3.08;1.98;;;20.30;77.60;;;;;;4951006;28;20037;-59
2021/08/03 01:36:08;;;;;;;3.63;1.85;;;20.30;77.60;;;;;;4995522;28;20022;-59
2021/08/03 01:38:34;;;;;;;7.97;2.53;;;20.30;77.70;;;;;;4989861;28;20142;-59
2021/08/03 01:41:02;;;;;;;5.75;2.70;;;20.20;77.70;;;;;;4996670;28;20046;-59
2021/08/03 01:43:27;;;;;;;5.00;3.17;;;20.20;77.70;;;;;;4988865;28;20026;-59
2021/08/03 01:45:54;;;;;;;9.35;3.53;;;20.20;77.70;;;;;;4998587;28;20453;-59
2021/08/03 01:48:20;;;;;;;4.85;2.95;;;20.20;77.80;;;;;;4991641;28;20018;-59
2021/08/03 01:50:46;;;;;;;4.63;2.95;;;20.10;77.80;;;;;;4988252;28;20034;-59
2021/08/03 01:53:11;;;;;;;5.45;2.60;;;20.10;77.90;;;;;;4988081;28;20157;-60
2021/08/03 01:55:37;;;;;;;8.77;3.00;;;20.10;77.90;;;;;;4986484;28;20038;-59
2021/08/03 01:58:02;;;;;;;5.50;2.53;;;20.10;77.90;;;;;;4988617;28;20153;-59
2021/08/03 02:00:28;;;;;;;5.55;2.53;;;20.10;78.00;;;;;;4988493;28;20034;-59
2021/08/03 02:02:54;;;;;;;4.88;2.47;;;20.00;78.10;;;;;;4977713;28;20435;-59
2021/08/03 02:05:19;;;;;;;3.15;2.60;;;20.00;78.20;;;;;;4983748;28;20092;-59
2021/08/03 02:07:45;;;;;;;2.80;2.22;;;20.00;78.30;;;;;;4960702;28;20043;-59
2021/08/03 02:10:11;;;;;;;7.15;2.70;;;19.90;78.40;;;;;;4981656;28;20503;-59
2021/08/03 02:12:36;;;;;;;3.78;2.33;;;19.90;78.60;;;;;;4987621;28;20034;-59
2021/08/03 02:15:03;;;;;;;4.15;2.13;;;19.90;78.70;;;;;;4978322;28;20178;-59
2021/08/03 02:17:29;;;;;;;4.03;2.10;;;19.90;78.80;;;;;;4983893;28;20084;-59
2021/08/03 02:19:54;;;;;;;4.55;2.00;;;19.90;78.80;;;;;;4982431;28;20054;-59
2021/08/03 02:22:20;;;;;;;3.97;2.20;;;19.90;79.00;;;;;;4977312;28;20097;-59
2021/08/03 02:24:46;;;;;;;5.15;2.30;;;19.80;79.00;;;;;;4985529;28;20112;-59
2021/08/03 02:27:11;;;;;;;5.70;1.70;;;19.80;79.10;;;;;;4982625;28;20042;-59
2021/08/03 02:29:40;;;;;;;5.70;2.30;;;19.80;79.10;;;;;;4982854;28;20184;-59
2021/08/03 02:32:17;;;;;;;2.75;1.90;;;19.80;79.20;;;;;;4979702;28;20442;-59
2021/08/03 02:35:07;;;;;;;3.05;1.92;;;19.80;79.30;;;;;;4980421;28;20104;-59
2021/08/03 02:37:35;;;;;;;4.28;1.85;;;19.70;79.20;;;;;;4984779;28;20630;-59
2021/08/03 02:40:01;;;;;;;2.38;1.75;;;19.70;79.30;;;;;;4979763;28;20035;-59
2021/08/03 02:42:27;;;;;;;3.10;1.95;;;19.70;79.10;;;;;;4978625;28;20035;-59
2021/08/03 02:44:55;;;;;;;4.22;2.08;;;19.70;79.40;;;;;;4980659;28;20141;-59
2021/08/03 02:47:29;;;;;;;2.80;2.00;;;19.70;79.60;;;;;;4978637;28;20022;-59
2021/08/03 02:50:04;;;;;;;3.35;1.70;;;19.60;79.70;;;;;;4980551;28;20044;-59
2021/08/03 02:52:30;;;;;;;1.83;1.65;;;19.60;79.80;;;;;;4981611;28;20114;-59
2021/08/03 02:54:58;;;;;;;2.55;1.80;;;19.60;79.90;;;;;;4979206;28;20113;-59
2021/08/03 02:57:23;;;;;;;2.78;1.80;;;19.50;79.90;;;;;;4981217;28;20018;-59
2021/08/03 02:59:53;;;;;;;2.35;1.80;;;19.50;80.00;;;;;;4983647;28;20041;-59
2021/08/03 03:02:18;;;;;;;3.65;1.70;;;19.50;80.20;;;;;;4979020;28;20026;-59
2021/08/03 03:05:06;;;;;;;3.28;1.95;;;19.50;80.30;;;;;;4978390;28;20034;-59
2021/08/03 03:07:51;;;;;;;3.22;1.95;;;19.50;80.40;;;;;;4969111;28;20453;-59
2021/08/03 03:10:18;;;;;;;4.43;1.88;;;19.40;80.40;;;;;;4980532;28;20035;-59
2021/08/03 03:12:51;;;;;;;2.47;2.03;;;19.40;80.50;;;;;;4982294;28;20036;-59
2021/08/03 03:15:17;;;;;;;4.80;1.80;;;19.40;80.50;;;;;;4979920;28;20026;-59
2021/08/03 03:17:45;;;;;;;5.35;1.90;;;19.40;80.60;;;;;;4979310;28;20101;-59
2021/08/03 03:20:11;;;;;;;2.70;2.13;;;19.30;80.60;;;;;;4978382;28;20046;-59
2021/08/03 03:22:43;;;;;;;4.20;1.98;;;19.30;80.70;;;;;;4982139;28;20041;-59
2021/08/03 03:25:15;;;;;;;2.38;1.90;;;19.30;80.80;;;;;;4977607;28;20054;-59
2021/08/03 03:27:40;;;;;;;3.13;1.98;;;19.30;80.80;;;;;;4981208;28;20026;-59
2021/08/03 03:30:06;;;;;;;4.07;2.00;;;19.30;80.90;;;;;;4978138;28;20065;-59
2021/08/03 03:32:32;;;;;;;3.88;1.90;;;19.20;80.80;;;;;;4981568;28;20034;-59
2021/08/03 03:34:58;;;;;;;2.50;1.90;;;19.20;81.00;;;;;;4983377;28;20108;-59
2021/08/03 03:37:26;;;;;;;2.25;1.73;;;19.20;81.00;;;;;;4977672;28;20026;-58
2021/08/03 03:39:53;;;;;;;2.45;1.80;;;19.20;81.10;;;;;;4978046;28;20037;-59
2021/08/03 03:42:20;;;;;;;2.60;1.83;;;19.20;81.20;;;;;;4980068;28;20545;-59
2021/08/03 03:44:45;;;;;;;3.38;2.05;;;19.10;81.30;;;;;;4980104;28;20109;-59
2021/08/03 03:47:18;;;;;;;2.92;1.83;;;19.10;81.50;;;;;;4978285;28;20038;-59
2021/08/03 03:49:45;;;;;;;5.15;1.80;;;19.10;81.50;;;;;;4981117;28;20041;-59
2021/08/03 03:52:11;;;;;;;2.85;1.85;;;19.10;81.50;;;;;;4965226;28;20034;-59
2021/08/03 03:54:38;;;;;;;3.10;1.73;;;19.10;81.60;;;;;;4984342;28;20026;-59
2021/08/03 03:57:05;;;;;;;2.30;1.65;;;19.00;81.60;;;;;;4982482;28;20035;-58
2021/08/03 03:59:31;;;;;;;3.80;2.20;;;19.00;81.60;;;;;;4987083;28;20112;-59
2021/08/03 04:01:58;;;;;;;2.95;1.77;;;19.00;81.80;;;;;;4987166;28;20477;-59
2021/08/03 04:04:24;;;;;;;3.13;1.77;;;19.00;81.90;;;;;;4987772;28;20038;-59
2021/08/03 04:06:50;;;;;;;1.75;1.65;;;19.00;82.00;;;;;;4985991;28;20026;-59
2021/08/03 04:09:17;;;;;;;1.95;1.60;;;19.00;81.90;;;;;;4980497;28;20057;-59
2021/08/03 04:11:44;;;;;;;5.25;2.00;;;18.90;81.80;;;;;;4967744;28;20118;-59
2021/08/03 04:14:09;;;;;;;2.78;1.92;;;18.90;82.00;;;;;;4984661;28;20019;-59
2021/08/03 04:16:35;;;;;;;2.03;1.48;;;18.90;81.90;;;;;;4983937;28;20037;-59
2021/08/03 04:19:00;;;;;;;3.25;1.77;;;18.90;82.00;;;;;;4984922;28;20061;-59
2021/08/03 04:21:26;;;;;;;1.70;1.60;;;18.80;82.10;;;;;;4984012;28;20089;-59
2021/08/03 04:23:51;;;;;;;4.40;1.90;;;18.80;82.10;;;;;;4986330;28;20069;-59
2021/08/03 04:26:17;;;;;;;4.22;1.90;;;18.80;82.10;;;;;;4981937;28;20064;-59
2021/08/03 04:28:42;;;;;;;3.17;1.60;;;18.80;82.20;;;;;;4985481;28;20577;-59
2021/08/03 04:31:08;;;;;;;3.00;1.60;;;18.80;82.20;;;;;;4985919;28;20030;-59
2021/08/03 04:33:37;;;;;;;2.60;1.98;;;18.80;82.20;;;;;;4986294;28;20022;-59
2021/08/03 04:36:02;;;;;;;4.10;1.75;;;18.80;82.20;;;;;;4984634;28;20026;-59
2021/08/03 04:38:28;;;;;;;2.42;1.90;;;18.70;82.20;;;;;;4986643;28;20054;-59
2021/08/03 04:40:53;;;;;;;4.38;2.03;;;18.70;82.30;;;;;;4987236;28;20229;-59
2021/08/03 04:43:19;;;;;;;4.10;1.80;;;18.70;82.30;;;;;;4987395;28;20031;-59
2021/08/03 04:45:44;;;;;;;2.28;1.95;;;18.70;82.40;;;;;;4987828;28;20425;-59
2021/08/03 04:48:10;;;;;;;2.22;2.03;;;18.70;82.40;;;;;;4990535;28;20034;-59
2021/08/03 04:50:36;;;;;;;2.10;1.90;;;18.70;82.40;;;;;;4969012;28;20099;-59
2021/08/03 04:53:01;;;;;;;2.10;1.90;;;18.70;82.40;;;;;;4987065;28;20109;-59
2021/08/03 04:55:27;;;;;;;2.05;1.80;;;18.70;82.40;;;;;;4986486;28;21247;-59
2021/08/03 04:57:52;;;;;;;3.80;1.85;;;18.70;82.50;;;;;;4988694;28;20074;-59
2021/08/03 05:00:18;;;;;;;2.55;2.17;;;18.70;82.50;;;;;;4986316;28;20053;-59
2021/08/03 05:02:44;;;;;;;3.47;2.28;;;18.70;82.60;;;;;;4996920;28;20406;-59
2021/08/03 05:05:10;;;;;;;2.90;2.17;;;18.60;82.60;;;;;;4994867;28;20042;-59
2021/08/03 05:07:35;;;;;;;2.33;1.92;;;18.70;82.60;;;;;;4990496;28;20046;-59
2021/08/03 05:10:02;;;;;;;7.03;2.17;;;18.60;82.50;;;;;;4989354;28;20719;-59
2021/08/03 05:12:28;;;;;;;3.63;1.80;;;18.60;82.70;;;;;;4991153;28;20026;-59
2021/08/03 05:15:00;;;;;;;2.10;1.90;;;18.60;82.70;;;;;;4989997;28;20022;-59
2021/08/03 05:17:29;;;;;;;2.88;1.98;;;18.60;82.90;;;;;;4991197;28;20023;-59
2021/08/03 05:19:54;;;;;;;5.53;1.95;;;18.60;83.00;;;;;;4990284;28;20034;-59
2021/08/03 05:22:20;;;;;;;3.30;1.83;;;18.50;83.10;;;;;;4989886;28;20401;-59
2021/08/03 05:24:45;;;;;;;5.60;2.38;;;18.50;83.10;;;;;;4990188;28;20057;-59
2021/08/03 05:27:11;;;;;;;2.50;2.00;;;18.50;83.00;;;;;;4990880;28;20098;-59
2021/08/03 05:29:36;;;;;;;3.17;2.35;;;18.50;83.00;;;;;;4987951;28;20034;-59
2021/08/03 05:32:02;;;;;;;2.53;1.88;;;18.50;83.10;;;;;;4993948;28;20022;-59
2021/08/03 05:34:27;;;;;;;3.58;1.92;;;18.50;83.10;;;;;;4989726;28;20487;-59
2021/08/03 05:36:54;;;;;;;2.60;2.33;;;18.50;83.00;;;;;;4988987;28;20080;-59
2021/08/03 05:39:19;;;;;;;3.00;2.30;;;18.50;83.10;;;;;;4987028;28;20121;-59
2021/08/03 05:41:45;;;;;;;2.42;2.15;;;18.50;83.10;;;;;;4988318;28;20126;-59
2021/08/03 05:44:10;;;;;;;2.60;2.03;;;18.50;83.20;;;;;;4990156;28;20046;-59
2021/08/03 05:46:36;;;;;;;4.68;2.05;;;18.50;83.20;;;;;;4987873;28;20045;-59
2021/08/03 05:49:02;;;;;;;3.20;2.00;;;18.50;83.20;;;;;;4990260;28;20486;-59
2021/08/03 05:51:28;;;;;;;5.20;2.00;;;18.50;83.30;;;;;;4998590;28;20420;-59
2021/08/03 05:53:53;;;;;;;2.80;2.30;;;18.50;83.50;;;;;;4986122;28;20122;-59
2021/08/03 05:56:19;;;;;;;4.63;2.65;;;18.50;84.10;;;;;;4988044;28;20768;-59
2021/08/03 05:58:44;;;;;;;3.05;2.70;;;18.50;84.50;;;;;;4981207;28;20447;-60
2021/08/03 06:01:10;;;;;;;4.88;2.90;;;18.50;85.00;;;;;;4984538;28;20126;-59
2021/08/03 06:03:35;;;;;;;4.60;2.80;;;18.50;85.70;;;;;;4987114;28;20065;-59
2021/08/03 06:06:01;;;;;;;7.15;3.30;;;18.40;86.20;;;;;;4987901;28;20125;-59
2021/08/03 06:08:27;;;;;;;5.22;3.20;;;18.50;86.50;;;;;;4998886;28;20350;-59
2021/08/03 06:10:53;;;;;;;4.32;3.10;;;18.30;86.70;;;;;;4986689;28;20084;-59
2021/08/03 06:13:20;;;;;;;4.72;3.30;;;18.30;86.90;;;;;;4987392;28;20034;-59
2021/08/03 06:15:45;;;;;;;6.55;3.53;;;18.30;87.00;;;;;;4971540;28;20022;-59
2021/08/03 06:18:30;;;;;;;3.90;3.03;;;18.30;87.20;;;;;;4969440;28;20026;-60
2021/08/03 06:20:56;;;;;;;5.22;3.38;;;18.30;87.20;;;;;;4985470;28;20549;-59
2021/08/03 06:23:25;;;;;;;6.13;3.03;;;18.30;87.20;;;;;;4985574;28;20034;-59
2021/08/03 06:25:55;;;;;;;7.85;3.45;;;18.30;87.40;;;;;;4985241;28;20038;-59
2021/08/03 06:28:21;;;;;;;5.70;3.38;;;18.30;87.80;;;;;;4985238;28;20471;-59
2021/08/03 06:30:48;;;;;;;4.95;3.20;;;18.30;87.70;;;;;;4985995;28;20369;-59
2021/08/03 06:33:15;;;;;;;9.23;3.80;;;18.40;87.70;;;;;;4979567;28;20061;-59
2021/08/03 06:35:41;;;;;;;9.02;4.05;;;18.30;87.70;;;;;;4983522;28;20022;-59
2021/08/03 06:38:06;;;;;;;7.70;4.00;;;18.30;88.00;;;;;;4988349;28;20050;-59
2021/08/03 06:40:32;;;;;;;11.40;4.07;;;18.30;88.10;;;;;;4985833;28;20026;-59
2021/08/03 06:43:08;;;;;;;14.90;4.32;;;18.40;88.10;;;;;;4981863;28;20553;-59
2021/08/03 06:45:34;;;;;;;10.48;3.70;;;18.30;88.10;;;;;;4979701;28;20098;-59
2021/08/03 06:48:04;;;;;;;12.70;3.42;;;18.30;88.10;;;;;;4979670;28;20057;-59
2021/08/03 06:50:32;;;;;;;10.23;3.60;;;18.30;88.10;;;;;;4977972;28;20514;-59
2021/08/03 06:52:58;;;;;;;10.65;3.58;;;18.30;88.10;;;;;;4983065;28;20141;-59
2021/08/03 06:55:29;;;;;;;12.98;4.22;;;18.30;88.10;;;;;;4985471;28;20030;-59
2021/08/03 06:57:56;;;;;;;14.80;3.90;;;18.40;88.00;;;;;;4983621;28;20541;-59
2021/08/03 07:00:24;;;;;;;7.65;2.95;;;18.40;88.00;;;;;;4984842;28;20113;-59
2021/08/03 07:02:49;;;;;;;36.42;5.45;;;18.30;88.00;;;;;;4963569;28;20025;-59
2021/08/03 07:05:19;;;;;;;40.78;6.43;;;18.40;88.30;;;;;;4981201;28;20030;-59
2021/08/03 07:07:44;;;;;;;15.05;4.25;;;18.40;88.50;;;;;;4965371;28;20030;-59
2021/08/03 07:10:10;;;;;;;15.15;4.85;;;18.40;88.80;;;;;;4977581;28;20561;-59
2021/08/03 07:12:36;;;;;;;21.25;4.40;;;18.40;88.90;;;;;;4978371;28;20062;-59
2021/08/03 07:15:02;;;;;;;32.20;4.65;;;18.40;89.10;;;;;;4980704;28;20069;-59
2021/08/03 07:17:30;;;;;;;25.85;4.78;;;18.40;89.00;;;;;;4986162;28;20062;-59
2021/08/03 07:19:59;;;;;;;23.15;4.65;;;18.40;88.90;;;;;;4980929;28;20408;-59
2021/08/03 07:22:24;;;;;;;43.58;5.45;;;18.40;89.00;;;;;;4979771;28;20041;-59
2021/08/03 07:24:50;;;;;;;23.70;5.25;;;18.40;88.90;;;;;;4962321;28;20377;-59
2021/08/03 07:27:15;;;;;;;23.25;5.45;;;18.40;89.00;;;;;;4958436;28;20092;-59
2021/08/03 07:29:41;;;;;;;20.83;4.57;;;18.40;88.80;;;;;;4978304;28;20639;-61
2021/08/03 07:32:07;;;;;;;26.17;5.13;;;18.50;88.80;;;;;;4978141;28;20058;-59
2021/08/03 07:34:33;;;;;;;26.05;4.78;;;18.50;88.70;;;;;;4971179;28;20039;-59
2021/08/03 07:37:01;;;;;;;22.05;4.43;;;18.50;88.60;;;;;;4976161;28;20580;-59
2021/08/03 07:39:26;;;;;;;15.98;4.30;;;18.50;88.70;;;;;;4976831;28;20049;-59
2021/08/03 07:41:53;;;;;;;20.50;5.10;;;18.50;88.80;;;;;;4977900;28;20026;-59
2021/08/03 07:44:18;;;;;;;36.05;5.10;;;18.60;88.60;;;;;;4972570;28;20465;-59
2021/08/03 07:46:44;;;;;;;28.38;5.30;;;18.60;88.60;;;;;;4974567;28;20034;-59
2021/08/03 07:49:09;;;;;;;19.60;4.10;;;18.60;88.50;;;;;;4979377;28;20512;-59
2021/08/03 07:51:35;;;;;;;37.45;4.45;;;18.70;88.50;;;;;;4976097;28;20494;-59
2021/08/03 07:54:00;;;;;;;13.00;3.30;;;18.70;88.40;;;;;;4975657;28;20034;-59
2021/08/03 07:56:26;;;;;;;11.82;3.50;;;18.70;87.90;;;;;;4976531;28;20026;-59
2021/08/03 07:58:52;;;;;;;19.40;3.20;;;18.70;87.60;;;;;;4976806;28;20473;-59
2021/08/03 08:01:20;;;;;;;11.50;3.15;;;18.80;87.10;;;;;;4972507;28;20031;-59
2021/08/03 08:03:46;;;;;;;9.48;2.78;;;18.80;86.60;;;;;;4974509;28;20042;-59
2021/08/03 08:06:12;;;;;;;14.85;3.53;;;18.90;86.30;;;;;;4973487;28;20343;-59
2021/08/03 08:08:37;;;;;;;20.92;3.30;;;18.90;85.90;;;;;;4975827;28;20056;-59
2021/08/03 08:11:03;;;;;;;14.23;3.45;;;18.90;85.40;;;;;;4978104;28;20502;-60
2021/08/03 08:13:28;;;;;;;16.70;3.63;;;18.90;85.00;;;;;;4978251;28;20487;-58
2021/08/03 08:15:54;;;;;;;26.33;3.70;;;19.00;84.90;;;;;;4978824;28;20045;-59
2021/08/03 08:18:19;;;;;;;17.50;3.17;;;19.00;84.70;;;;;;4980983;28;20182;-59
2021/08/03 08:20:45;;;;;;;28.02;3.78;;;19.00;84.80;;;;;;4979423;28;20580;-59
2021/08/03 08:23:11;;;;;;;23.83;3.60;;;19.10;84.70;;;;;;4978258;28;20065;-59
2021/08/03 08:25:37;;;;;;;18.38;3.30;;;19.10;84.60;;;;;;4976326;28;20053;-59
2021/08/03 08:28:03;;;;;;;15.18;2.85;;;19.10;84.30;;;;;;4979681;28;20078;-59
2021/08/03 08:30:29;;;;;;;15.48;3.10;;;19.20;84.20;;;;;;4975728;28;20093;-59
2021/08/03 08:32:54;;;;;;;17.52;3.25;;;19.20;84.00;;;;;;4975712;28;20459;-59
2021/08/03 08:35:20;;;;;;;16.50;2.90;;;19.20;83.80;;;;;;4975610;28;20045;-59
2021/08/03 08:37:45;;;;;;;13.30;2.72;;;19.30;83.80;;;;;;4977647;28;20097;-59
2021/08/03 08:40:11;;;;;;;17.73;2.83;;;19.30;83.70;;;;;;4978625;28;20045;-59
2021/08/03 08:42:38;;;;;;;19.25;3.55;;;19.40;83.70;;;;;;4981751;28;20147;-60
2021/08/03 08:45:04;;;;;;;19.08;2.80;;;19.40;83.70;;;;;;4981486;28;20125;-59
2021/08/03 08:47:29;;;;;;;11.77;3.03;;;19.50;83.60;;;;;;4981527;28;20184;-59
2021/08/03 08:50:02;;;;;;;8.90;2.40;;;19.50;83.50;;;;;;4980344;28;20041;-59
2021/08/03 08:52:27;;;;;;;14.95;2.67;;;19.60;83.50;;;;;;4978425;28;20165;-63
2021/08/03 08:54:53;;;;;;;16.63;3.25;;;19.60;83.30;;;;;;4995223;28;20137;-60
2021/08/03 08:57:18;;;;;;;28.63;3.50;;;19.60;83.10;;;;;;4965062;28;20541;-59
2021/08/03 08:59:44;;;;;;;16.17;3.25;;;19.70;83.00;;;;;;4982130;28;20034;-60
2021/08/03 09:02:10;;;;;;;41.67;3.72;;;19.70;82.80;;;;;;4983231;28;20030;-60
2021/08/03 09:04:39;;;;;;;31.77;4.65;;;19.80;82.90;;;;;;4981853;28;20558;-59
2021/08/03 09:07:06;;;;;;;31.98;3.92;;;19.80;82.90;;;;;;4979343;28;20073;-60
2021/08/03 09:09:39;;;;;;;38.33;4.07;;;19.80;82.70;;;;;;4979272;28;20045;-60
2021/08/03 09:12:05;;;;;;;36.63;4.85;;;19.90;82.50;;;;;;4980312;28;20034;-60
2021/08/03 09:14:35;;;;;;;29.15;4.20;;;19.90;82.40;;;;;;4982045;28;20018;-60
2021/08/03 09:17:01;;;;;;;27.63;3.47;;;19.90;82.40;;;;;;4980107;28;20855;-60
2021/08/03 09:19:37;;;;;;;29.83;4.30;;;19.90;82.20;;;;;;4979437;28;20058;-59
2021/08/03 09:22:12;;;;;;;35.75;4.70;;;20.00;81.90;;;;;;4985914;28;20030;-60
2021/08/03 09:24:38;;;;;;;42.55;4.85;;;20.00;81.70;;;;;;4989053;28;20542;-59
2021/08/03 09:27:04;;;;;;;24.83;3.22;;;20.10;81.60;;;;;;4987972;28;20101;-59
2021/08/03 09:29:43;;;;;;;33.08;3.55;;;20.10;81.30;;;;;;4988827;28;20383;-60
2021/08/03 09:32:09;;;;;;;25.58;3.72;;;20.10;81.00;;;;;;4968266;28;20101;-59
2021/08/03 09:34:34;;;;;;;30.85;3.92;;;20.20;81.00;;;;;;4985372;28;20137;-60
2021/08/03 09:37:00;;;;;;;29.05;3.60;;;20.20;81.20;;;;;;4986920;28;20058;-60
2021/08/03 09:39:42;;;;;;;29.83;4.80;;;20.20;80.90;;;;;;4988210;28;20494;-59
2021/08/03 09:42:22;;;;;;;37.30;5.38;;;20.20;80.90;;;;;;4989121;28;20071;-60
2021/08/03 09:44:55;;;;;;;35.40;5.05;;;20.30;80.80;;;;;;4984674;28;20663;-60
2021/08/03 09:47:21;;;;;;;29.50;3.85;;;20.30;81.10;;;;;;4997799;28;20045;-59
2021/08/03 09:49:48;;;;;;;22.23;3.75;;;20.40;80.30;;;;;;4986924;28;20047;-60
2021/08/03 09:52:22;;;;;;;23.73;3.75;;;20.40;80.00;;;;;;4986373;28;21205;-59
2021/08/03 09:54:48;;;;;;;20.60;3.30;;;20.40;79.70;;;;;;4999560;28;20410;-60
2021/08/03 09:57:24;;;;;;;28.08;4.20;;;20.40;79.60;;;;;;4987092;28;20048;-61
2021/08/03 09:59:50;;;;;;;27.38;3.85;;;20.50;79.50;;;;;;4988301;28;20056;-60
2021/08/03 10:02:18;;;;;;;38.33;5.55;;;20.50;79.40;;;;;;4986782;28;20100;-60
2021/08/03 10:04:43;;;;;;;30.55;4.78;;;20.50;79.60;;;;;;4989526;28;20026;-60
2021/08/03 10:07:09;;;;;;;30.25;4.10;;;20.60;79.50;;;;;;4981435;28;20403;-60
2021/08/03 10:09:35;;;;;;;39.05;5.80;;;20.60;79.40;;;;;;4983028;28;20049;-60
2021/08/03 10:12:00;;;;;;;32.78;4.55;;;20.70;79.20;;;;;;4980707;28;20415;-60
2021/08/03 10:14:27;;;;;;;35.13;6.18;;;20.70;78.80;;;;;;4981737;28;20054;-62
2021/08/03 10:16:53;;;;;;;73.10;7.22;;;20.80;78.80;;;;;;4966691;28;20034;-62
2021/08/03 10:19:24;;;;;;;66.50;8.27;;;20.80;78.50;;;;;;4983157;28;20117;-59
2021/08/03 10:22:05;;;;;;;52.75;6.60;;;20.90;78.30;;;;;;4983353;28;20030;-59
2021/08/03 10:24:33;;;;;;;80.07;9.18;;;20.90;78.20;;;;;;4980977;28;20029;-60
2021/08/03 10:27:05;;;;;;;39.17;5.28;;;21.00;77.80;;;;;;4965205;28;20030;-59
2021/08/03 10:29:31;;;;;;;40.10;6.70;;;21.00;77.70;;;;;;4980950;28;20026;-59
2021/08/03 10:31:56;;;;;;;47.70;5.97;;;21.00;77.60;;;;;;4983294;28;20128;-60
2021/08/03 10:34:50;;;;;;;34.38;4.85;;;21.10;77.20;;;;;;4980482;28;20080;-59
2021/08/03 10:37:16;;;;;;;44.80;5.93;;;21.10;76.80;;;;;;4980828;28;20034;-59
2021/08/03 10:39:49;;;;;;;21.75;5.68;;;21.10;77.40;;;;;;4979042;28;20049;-59
2021/08/03 10:42:14;;;;;;;27.63;5.55;;;21.20;76.60;;;;;;4979918;28;20039;-61
2021/08/03 10:44:48;;;;;;;30.38;5.00;;;21.30;76.60;;;;;;4981446;28;20049;-60
2021/08/03 10:47:34;;;;;;;24.23;4.40;;;21.30;76.70;;;;;;4966948;28;20117;-59
2021/08/03 10:50:00;;;;;;;39.58;4.47;;;21.40;76.40;;;;;;4983217;28;20104;-60
2021/08/03 10:52:45;;;;;;;25.17;4.63;;;21.40;76.30;;;;;;4980887;28;20040;-60
2021/08/03 10:55:43;;;;;;;21.15;3.42;;;21.50;76.20;;;;;;4980355;28;20514;-60
2021/08/03 10:58:09;;;;;;;15.65;3.20;;;21.50;75.60;;;;;;4977180;28;20296;-59
2021/08/03 11:00:52;;;;;;;32.78;3.75;;;21.50;75.20;;;;;;4980444;28;20022;-60
2021/08/03 11:03:35;;;;;;;21.40;3.67;;;21.60;74.90;;;;;;4976020;28;20038;-60
2021/08/03 11:06:04;;;;;;;19.73;3.15;;;21.70;74.30;;;;;;4980469;28;20144;-62
2021/08/03 11:08:33;;;;;;;22.80;3.42;;;21.70;73.50;;;;;;4978746;28;20092;-62
2021/08/03 11:11:24;;;;;;;21.42;3.28;;;21.80;73.30;;;;;;4982144;28;20015;-59
2021/08/03 11:13:50;;;;;;;28.33;3.47;;;21.90;73.10;;;;;;4981704;28;20018;-59
2021/08/03 11:16:19;;;;;;;17.88;3.50;;;21.90;72.70;;;;;;4995569;28;20108;-60
2021/08/03 11:18:48;;;;;;;17.20;3.20;;;22.00;72.60;;;;;;4981666;28;20317;-59
2021/08/03 11:21:17;;;;;;;12.65;2.35;;;22.10;72.40;;;;;;4962362;28;20806;-59
2021/08/03 11:24:00;;;;;;;20.08;2.95;;;22.20;72.00;;;;;;5056895;28;20524;-61
2021/08/03 11:26:27;;;;;;;19.33;4.22;;;22.20;71.60;;;;;;5045028;28;20571;-62
2021/08/03 11:29:03;;;;;;;28.88;3.92;;;22.30;71.20;;;;;;5055642;28;20023;-61
2021/08/03 11:31:46;;;;;;;14.55;3.08;;;22.30;71.00;;;;;;5042085;28;20057;-62
2021/08/03 11:34:13;;;;;;;14.07;2.20;;;22.40;70.30;;;;;;5038039;28;20061;-61
2021/08/03 11:37:32;;;;;;;22.70;3.05;;;22.50;69.50;;;;;;5039699;28;20504;-61
2021/08/03 11:39:59;;;;;;;8.30;2.33;;;22.60;69.60;;;;;;4992919;28;20026;-61
2021/08/03 11:42:38;;;;;;;11.77;2.10;;;22.70;69.00;;;;;;4994663;28;20028;-60
2021/08/03 11:45:13;;;;;;;10.07;1.85;;;22.80;68.70;;;;;;5001937;28;20051;-60
2021/08/03 11:47:50;;;;;;;12.63;2.03;;;22.80;68.60;;;;;;5022011;28;20041;-60
2021/08/03 11:50:17;;;;;;;16.02;2.28;;;22.90;68.20;;;;;;5082935;28;20412;-60
2021/08/03 11:52:43;;;;;;;11.57;1.70;;;22.90;68.30;;;;;;5056419;28;20020;-60
2021/08/03 11:55:12;;;;;;;11.45;1.70;;;23.00;68.70;;;;;;5054282;28;20611;-60
2021/08/03 11:57:38;;;;;;;12.05;2.38;;;23.00;68.80;;;;;;5037668;28;20128;-60
2021/08/03 12:00:09;;;;;;;16.83;2.17;;;23.00;69.00;;;;;;5037634;28;20024;-60
2021/08/03 12:02:34;;;;;;;9.07;2.03;;;23.10;69.20;;;;;;5047406;28;20105;-60
2021/08/03 12:05:12;;;;;;;22.60;2.22;;;23.00;69.30;;;;;;5052643;28;20099;-60
2021/08/03 12:07:39;;;;;;;16.90;1.83;;;23.00;69.50;;;;;;5053688;28;20025;-60
2021/08/03 12:10:05;;;;;;;10.55;1.42;;;22.90;69.40;;;;;;5053500;28;20452;-60
2021/08/03 12:12:32;;;;;;;12.38;1.40;;;22.90;69.40;;;;;;5054646;28;20037;-60
2021/08/03 12:15:06;;;;;;;4.90;1.23;;;22.90;69.60;;;;;;5054511;28;20082;-60
2021/08/03 12:17:31;;;;;;;9.13;1.23;;;22.80;69.80;;;;;;5054695;28;20033;-60
2021/08/03 12:20:03;;;;;;;10.95;1.25;;;22.70;70.00;;;;;;5055585;28;20304;-60
2021/08/03 12:22:29;;;;;;;6.60;1.13;;;22.70;70.10;;;;;;5038405;28;20544;-60
2021/08/03 12:25:04;;;;;;;6.63;1.60;;;22.70;70.00;;;;;;5051675;28;20117;-60
2021/08/03 12:27:40;;;;;;;8.33;1.20;;;22.70;70.40;;;;;;5038777;28;20469;-60
2021/08/03 12:30:06;;;;;;;9.98;1.70;;;22.60;70.60;;;;;;5055562;28;20025;-60
2021/08/03 12:32:39;;;;;;;49.15;4.13;;;22.70;70.80;;;;;;5054620;28;20151;-60
2021/08/03 12:35:09;;;;;;;22.70;2.88;;;22.60;71.20;;;;;;5039275;28;20029;-62
2021/08/03 12:37:34;;;;;;;15.38;2.13;;;22.60;71.50;;;;;;5023942;28;20062;-62
2021/08/03 12:40:00;;;;;;;18.75;2.20;;;22.60;71.70;;;;;;5041035;28;20037;-62
2021/08/03 12:44:58;;;;;;;10.70;2.20;;;22.50;71.80;;;;;;5040850;28;20101;-62
2021/08/03 12:47:27;;;;;;;14.73;1.92;;;22.60;72.10;;;;;;5038778;28;20132;-59
2021/08/03 12:50:07;;;;;;;22.13;2.40;;;22.50;72.20;;;;;;5039083;28;20532;-62
2021/08/03 12:52:33;;;;;;;18.73;2.67;;;22.50;72.30;;;;;;5041255;28;20041;-62